Etusivu
METAR-TAF:

METAR-TAF

Lentoasemat :

Beaumont, Texas, Yhdysvallat

Leveyspiiri: 30-04-13N, Pituuspiiri: 094-12-54W, korkeus merenpinnasta: 10 m

Tämänhetkinen sää

Tämä raportti tehtiin 31 minuuttia sitten, kello 23.55 UTC
tyyntä
Lämpötila 21°C
Kosteus 83%
Ilmanpaine 1018 hPa
Näkyvyys: 16.1 km
Hajanaisia pilviä 1400 ft:n korkeudessa
Hajonneita pilviä 6000 ft:n korkeudessa
Pilvistä 9000 ft:n korkeudessa

METAR: KBMT 072355Z AUTO 00000KT 10SM SCT014 BKN060 OVC090 21/18 A3005 RMK AO2 T02070183 10250 20207

Aika: 17:26 (00:26 UTC)


TAF: puuttuu

Säähavainnot ja -ennusteet yli 4000 lentoasemalta (METAR- ja TAF-raportit).

Käytössä olevat sääasemat on merkitty karttaan keltaisilla ja punaisilla pisteillä.

Aseta hiiri pisteen päälle nähdäksesi sääaseman nimen.

Klikkaa sitten nähdäksesi säähavainnot ja -ennusteet.

Kartan vaihtaminen: klikkaa mustalla rastilla varustettuja vihreitä pisteitä, niin voit zoomata sisään; viivalla varustettua vihreää pistettä, niin voit zoomata ulos tai vihreitä nuolia, niin pääset viereisille kartoille.


METAR-TAF: